DABC/CZL METAR and TAF weather

Enter ICAO airport designator
Station Type Date Time Source
DABC METAR 2020/06/05 09:00 UTC NOAA

DABC 050900Z 30011KT 9999 SCT033 21/10 Q1013


Station Type Date Time Source
DABC Decoded METAR 2020/06/05 09:00 UTC NOAA

Constantine, Algeria (DABC) 36-17N 006-37E 694M
Jun 05, 2020 - 05:00 AM EDT / 2020.06.05 0900 UTC
Wind: from the WNW (300 degrees) at 13 MPH (11 KT):0
Visibility: greater than 7 mile(s):0
Sky conditions: partly cloudy
Temperature: 69 F (21 C)
Dew Point: 50 F (10 C)
Relative Humidity: 49%
Pressure (altimeter): 29.91 in. Hg (1013 hPa)
ob: DABC 050900Z 30011KT 9999 SCT033 21/10 Q1013
cycle: 9

Station Type Date Time Source
DABC TAF 2020/06/05 06:39 UTC NOAA

TAF TAF DABC 050500Z 0506/0606 28008KT 9999 SCT026 PROB40
TEMPO 0506/0509 32012KT 4000 -TSRA FEW023CB BKN030
BECMG 0507/0509 34016KT
BECMG 0518/0520 22006KT

Example: see airport list